sensor_id;sensor_type;location;lat;lon;timestamp;P1;durP1;ratioP1;P2;durP2;ratioP2
10934;SDS011;5520;45.752;4.874;2022-08-21T00:01:42;0.63;;;0.63;;
10934;SDS011;5520;45.752;4.874;2022-08-21T00:04:10;0.63;;;0.50;;
10934;SDS011;5520;45.752;4.874;2022-08-21T00:06:46;1.07;;;0.97;;
10934;SDS011;5520;45.752;4.874;2022-08-21T00:09:14;0.87;;;0.80;;
10934;SDS011;5520;45.752;4.874;2022-08-21T00:11:42;1.40;;;1.00;;
10934;SDS011;5520;45.752;4.874;2022-08-21T00:14:11;2.70;;;1.13;;
10934;SDS011;5520;45.752;4.874;2022-08-21T00:16:40;1.60;;;1.00;;
10934;SDS011;5520;45.752;4.874;2022-08-21T00:19:08;0.63;;;0.50;;
10934;SDS011;5520;45.752;4.874;2022-08-21T00:21:36;2.50;;;1.00;;
10934;SDS011;5520;45.752;4.874;2022-08-21T00:24:04;0.73;;;0.53;;
10934;SDS011;5520;45.752;4.874;2022-08-21T00:26:33;2.13;;;0.87;;
10934;SDS011;5520;45.752;4.874;2022-08-21T00:29:03;2.67;;;0.90;;
10934;SDS011;5520;45.752;4.874;2022-08-21T00:31:31;1.67;;;0.80;;
10934;SDS011;5520;45.752;4.874;2022-08-21T00:34:01;1.10;;;0.80;;
10934;SDS011;5520;45.752;4.874;2022-08-21T00:36:29;1.47;;;0.70;;
10934;SDS011;5520;45.752;4.874;2022-08-21T00:38:57;2.37;;;0.73;;
10934;SDS011;5520;45.752;4.874;2022-08-21T00:41:25;3.80;;;1.90;;
10934;SDS011;5520;45.752;4.874;2022-08-21T00:44:04;1.00;;;0.70;;
10934;SDS011;5520;45.752;4.874;2022-08-21T00:46:32;1.50;;;0.67;;
10934;SDS011;5520;45.752;4.874;2022-08-21T00:49:02;1.30;;;1.20;;
10934;SDS011;5520;45.752;4.874;2022-08-21T00:51:33;0.90;;;0.80;;
10934;SDS011;5520;45.752;4.874;2022-08-21T00:54:03;0.50;;;0.50;;
10934;SDS011;5520;45.752;4.874;2022-08-21T00:56:43;3.50;;;0.90;;
10934;SDS011;5520;45.752;4.874;2022-08-21T00:59:13;1.70;;;0.80;;
10934;SDS011;5520;45.752;4.874;2022-08-21T01:01:42;1.73;;;0.93;;
10934;SDS011;5520;45.752;4.874;2022-08-21T01:04:12;1.80;;;0.90;;
10934;SDS011;5520;45.752;4.874;2022-08-21T01:06:40;3.43;;;1.10;;
10934;SDS011;5520;45.752;4.874;2022-08-21T01:09:08;0.87;;;0.60;;
10934;SDS011;5520;45.752;4.874;2022-08-21T01:11:36;1.10;;;0.90;;
10934;SDS011;5520;45.752;4.874;2022-08-21T01:14:04;1.37;;;0.87;;
10934;SDS011;5520;45.752;4.874;2022-08-21T01:16:32;1.43;;;0.87;;
10934;SDS011;5520;45.752;4.874;2022-08-21T01:19:00;1.60;;;0.60;;
10934;SDS011;5520;45.752;4.874;2022-08-21T01:21:30;3.93;;;0.93;;
10934;SDS011;5520;45.752;4.874;2022-08-21T01:23:58;4.73;;;1.23;;
10934;SDS011;5520;45.752;4.874;2022-08-21T01:26:27;3.60;;;1.27;;
10934;SDS011;5520;45.752;4.874;2022-08-21T01:29:02;0.73;;;0.63;;
10934;SDS011;5520;45.752;4.874;2022-08-21T01:31:30;1.23;;;0.70;;
10934;SDS011;5520;45.752;4.874;2022-08-21T01:33:59;2.93;;;1.77;;
10934;SDS011;5520;45.752;4.874;2022-08-21T01:36:27;3.03;;;2.07;;
10934;SDS011;5520;45.752;4.874;2022-08-21T01:38:57;3.33;;;0.80;;
10934;SDS011;5520;45.752;4.874;2022-08-21T01:41:25;1.00;;;0.53;;
10934;SDS011;5520;45.752;4.874;2022-08-21T01:43:53;0.60;;;0.60;;
10934;SDS011;5520;45.752;4.874;2022-08-21T01:46:21;2.73;;;0.90;;
10934;SDS011;5520;45.752;4.874;2022-08-21T01:48:48;1.57;;;1.07;;
10934;SDS011;5520;45.752;4.874;2022-08-21T01:51:16;1.80;;;0.73;;
10934;SDS011;5520;45.752;4.874;2022-08-21T01:53:44;1.30;;;0.80;;
10934;SDS011;5520;45.752;4.874;2022-08-21T01:56:14;3.30;;;0.70;;
10934;SDS011;5520;45.752;4.874;2022-08-21T01:58:44;1.07;;;0.87;;
10934;SDS011;5520;45.752;4.874;2022-08-21T02:01:12;1.53;;;0.83;;
10934;SDS011;5520;45.752;4.874;2022-08-21T02:03:41;1.87;;;1.00;;
10934;SDS011;5520;45.752;4.874;2022-08-21T02:06:12;1.13;;;0.70;;
10934;SDS011;5520;45.752;4.874;2022-08-21T02:08:41;1.47;;;0.70;;
10934;SDS011;5520;45.752;4.874;2022-08-21T02:11:09;0.97;;;0.70;;
10934;SDS011;5520;45.752;4.874;2022-08-21T02:13:38;0.70;;;0.70;;
10934;SDS011;5520;45.752;4.874;2022-08-21T02:16:06;3.10;;;0.83;;
10934;SDS011;5520;45.752;4.874;2022-08-21T02:18:34;2.00;;;1.20;;
10934;SDS011;5520;45.752;4.874;2022-08-21T02:21:02;4.10;;;0.80;;
10934;SDS011;5520;45.752;4.874;2022-08-21T02:23:30;1.73;;;0.80;;
10934;SDS011;5520;45.752;4.874;2022-08-21T02:25:59;1.43;;;1.23;;
10934;SDS011;5520;45.752;4.874;2022-08-21T02:28:27;4.17;;;1.40;;
10934;SDS011;5520;45.752;4.874;2022-08-21T02:30:57;0.93;;;0.90;;
10934;SDS011;5520;45.752;4.874;2022-08-21T02:33:26;0.80;;;0.80;;
10934;SDS011;5520;45.752;4.874;2022-08-21T02:35:54;3.13;;;0.73;;
10934;SDS011;5520;45.752;4.874;2022-08-21T02:38:23;4.20;;;0.90;;
10934;SDS011;5520;45.752;4.874;2022-08-21T02:40:55;2.20;;;0.87;;
10934;SDS011;5520;45.752;4.874;2022-08-21T02:43:24;1.80;;;1.00;;
10934;SDS011;5520;45.752;4.874;2022-08-21T02:45:53;2.40;;;1.47;;
10934;SDS011;5520;45.752;4.874;2022-08-21T02:48:24;1.03;;;0.80;;
10934;SDS011;5520;45.752;4.874;2022-08-21T02:50:53;2.47;;;0.97;;
10934;SDS011;5520;45.752;4.874;2022-08-21T02:53:21;1.00;;;0.90;;
10934;SDS011;5520;45.752;4.874;2022-08-21T02:55:51;1.97;;;1.00;;
10934;SDS011;5520;45.752;4.874;2022-08-21T02:58:20;2.30;;;1.00;;
10934;SDS011;5520;45.752;4.874;2022-08-21T03:00:48;0.83;;;0.80;;
10934;SDS011;5520;45.752;4.874;2022-08-21T03:03:18;1.57;;;0.80;;
10934;SDS011;5520;45.752;4.874;2022-08-21T03:05:48;1.43;;;1.00;;
10934;SDS011;5520;45.752;4.874;2022-08-21T03:08:16;1.70;;;0.90;;
10934;SDS011;5520;45.752;4.874;2022-08-21T03:10:45;1.40;;;0.77;;
10934;SDS011;5520;45.752;4.874;2022-08-21T03:13:14;0.93;;;0.83;;
10934;SDS011;5520;45.752;4.874;2022-08-21T03:15:42;3.20;;;0.70;;
10934;SDS011;5520;45.752;4.874;2022-08-21T03:18:10;2.03;;;1.00;;
10934;SDS011;5520;45.752;4.874;2022-08-21T03:20:39;2.57;;;0.77;;
10934;SDS011;5520;45.752;4.874;2022-08-21T03:23:09;1.37;;;0.73;;
10934;SDS011;5520;45.752;4.874;2022-08-21T03:25:42;0.90;;;0.90;;
10934;SDS011;5520;45.752;4.874;2022-08-21T03:28:11;1.17;;;0.50;;
10934;SDS011;5520;45.752;4.874;2022-08-21T03:30:40;1.53;;;0.77;;
10934;SDS011;5520;45.752;4.874;2022-08-21T03:33:08;1.27;;;0.97;;
10934;SDS011;5520;45.752;4.874;2022-08-21T03:35:40;2.07;;;1.30;;
10934;SDS011;5520;45.752;4.874;2022-08-21T03:38:10;3.93;;;1.13;;
10934;SDS011;5520;45.752;4.874;2022-08-21T03:40:39;1.20;;;1.10;;
10934;SDS011;5520;45.752;4.874;2022-08-21T03:43:07;3.07;;;1.00;;
10934;SDS011;5520;45.752;4.874;2022-08-21T03:45:36;1.53;;;0.73;;
10934;SDS011;5520;45.752;4.874;2022-08-21T03:48:05;3.83;;;1.07;;
10934;SDS011;5520;45.752;4.874;2022-08-21T03:50:34;1.33;;;0.80;;
10934;SDS011;5520;45.752;4.874;2022-08-21T03:53:06;1.10;;;0.80;;
10934;SDS011;5520;45.752;4.874;2022-08-21T03:55:44;2.80;;;1.00;;
10934;SDS011;5520;45.752;4.874;2022-08-21T03:58:13;1.27;;;0.80;;
10934;SDS011;5520;45.752;4.874;2022-08-21T04:00:42;2.27;;;0.90;;
10934;SDS011;5520;45.752;4.874;2022-08-21T04:03:10;0.77;;;0.70;;
10934;SDS011;5520;45.752;4.874;2022-08-21T04:05:38;0.93;;;0.83;;
10934;SDS011;5520;45.752;4.874;2022-08-21T04:08:07;2.63;;;1.10;;
10934;SDS011;5520;45.752;4.874;2022-08-21T04:10:36;2.00;;;0.73;;
10934;SDS011;5520;45.752;4.874;2022-08-21T04:13:06;2.37;;;0.90;;
10934;SDS011;5520;45.752;4.874;2022-08-21T04:15:34;3.70;;;0.80;;
10934;SDS011;5520;45.752;4.874;2022-08-21T04:18:02;2.63;;;0.90;;
10934;SDS011;5520;45.752;4.874;2022-08-21T04:20:31;1.37;;;0.73;;
10934;SDS011;5520;45.752;4.874;2022-08-21T04:22:59;1.37;;;0.90;;
10934;SDS011;5520;45.752;4.874;2022-08-21T04:25:27;2.30;;;0.93;;
10934;SDS011;5520;45.752;4.874;2022-08-21T04:27:55;2.60;;;0.73;;
10934;SDS011;5520;45.752;4.874;2022-08-21T04:30:26;1.07;;;0.93;;
10934;SDS011;5520;45.752;4.874;2022-08-21T04:32:55;3.90;;;0.90;;
10934;SDS011;5520;45.752;4.874;2022-08-21T04:35:24;4.97;;;0.70;;
10934;SDS011;5520;45.752;4.874;2022-08-21T04:37:52;0.73;;;0.70;;
10934;SDS011;5520;45.752;4.874;2022-08-21T04:40:20;1.47;;;0.80;;
10934;SDS011;5520;45.752;4.874;2022-08-21T04:42:50;2.13;;;0.90;;
10934;SDS011;5520;45.752;4.874;2022-08-21T04:45:19;1.73;;;0.90;;
10934;SDS011;5520;45.752;4.874;2022-08-21T04:47:50;1.43;;;0.93;;
10934;SDS011;5520;45.752;4.874;2022-08-21T04:50:19;1.37;;;0.70;;
10934;SDS011;5520;45.752;4.874;2022-08-21T04:52:47;1.20;;;0.83;;
10934;SDS011;5520;45.752;4.874;2022-08-21T04:55:15;1.20;;;1.10;;
10934;SDS011;5520;45.752;4.874;2022-08-21T04:57:44;1.83;;;0.90;;
10934;SDS011;5520;45.752;4.874;2022-08-21T05:00:15;2.33;;;0.70;;
10934;SDS011;5520;45.752;4.874;2022-08-21T05:02:45;2.37;;;0.70;;
10934;SDS011;5520;45.752;4.874;2022-08-21T05:05:15;2.03;;;0.80;;
10934;SDS011;5520;45.752;4.874;2022-08-21T05:07:43;1.03;;;0.90;;
10934;SDS011;5520;45.752;4.874;2022-08-21T05:10:12;2.20;;;0.93;;
10934;SDS011;5520;45.752;4.874;2022-08-21T05:12:40;2.30;;;0.80;;
10934;SDS011;5520;45.752;4.874;2022-08-21T05:15:09;3.13;;;1.00;;
10934;SDS011;5520;45.752;4.874;2022-08-21T05:17:39;1.77;;;1.10;;
10934;SDS011;5520;45.752;4.874;2022-08-21T05:20:07;1.67;;;1.00;;
10934;SDS011;5520;45.752;4.874;2022-08-21T05:22:38;2.33;;;0.90;;
10934;SDS011;5520;45.752;4.874;2022-08-21T05:25:07;2.13;;;1.10;;
10934;SDS011;5520;45.752;4.874;2022-08-21T05:27:36;2.60;;;0.90;;
10934;SDS011;5520;45.752;4.874;2022-08-21T05:30:05;2.30;;;0.87;;
10934;SDS011;5520;45.752;4.874;2022-08-21T05:32:34;1.87;;;0.90;;
10934;SDS011;5520;45.752;4.874;2022-08-21T05:35:02;1.43;;;0.70;;
10934;SDS011;5520;45.752;4.874;2022-08-21T05:37:30;2.87;;;0.90;;
10934;SDS011;5520;45.752;4.874;2022-08-21T05:40:00;2.20;;;0.93;;
10934;SDS011;5520;45.752;4.874;2022-08-21T05:42:47;1.60;;;1.17;;
10934;SDS011;5520;45.752;4.874;2022-08-21T05:45:20;4.00;;;0.90;;
10934;SDS011;5520;45.752;4.874;2022-08-21T05:48:07;1.60;;;0.90;;
10934;SDS011;5520;45.752;4.874;2022-08-21T05:50:35;2.30;;;0.70;;
10934;SDS011;5520;45.752;4.874;2022-08-21T05:53:04;1.27;;;1.00;;
10934;SDS011;5520;45.752;4.874;2022-08-21T05:55:35;3.73;;;0.90;;
10934;SDS011;5520;45.752;4.874;2022-08-21T05:58:10;1.33;;;0.90;;
10934;SDS011;5520;45.752;4.874;2022-08-21T06:00:38;3.30;;;0.67;;
10934;SDS011;5520;45.752;4.874;2022-08-21T06:03:10;1.43;;;0.93;;
10934;SDS011;5520;45.752;4.874;2022-08-21T06:05:38;1.10;;;1.00;;
10934;SDS011;5520;45.752;4.874;2022-08-21T06:08:06;1.67;;;1.20;;
10934;SDS011;5520;45.752;4.874;2022-08-21T06:10:36;3.43;;;0.93;;
10934;SDS011;5520;45.752;4.874;2022-08-21T06:13:04;3.80;;;1.63;;
10934;SDS011;5520;45.752;4.874;2022-08-21T06:15:32;2.03;;;1.10;;
10934;SDS011;5520;45.752;4.874;2022-08-21T06:18:00;2.47;;;0.90;;
10934;SDS011;5520;45.752;4.874;2022-08-21T06:20:28;4.17;;;1.13;;
10934;SDS011;5520;45.752;4.874;2022-08-21T06:22:56;2.97;;;1.30;;
10934;SDS011;5520;45.752;4.874;2022-08-21T06:25:24;3.13;;;0.80;;
10934;SDS011;5520;45.752;4.874;2022-08-21T06:27:59;4.97;;;1.23;;
10934;SDS011;5520;45.752;4.874;2022-08-21T06:30:27;3.00;;;1.27;;
10934;SDS011;5520;45.752;4.874;2022-08-21T06:32:55;2.37;;;1.23;;
10934;SDS011;5520;45.752;4.874;2022-08-21T06:35:23;2.67;;;1.13;;
10934;SDS011;5520;45.752;4.874;2022-08-21T06:37:52;3.97;;;1.30;;
10934;SDS011;5520;45.752;4.874;2022-08-21T06:40:20;5.07;;;1.40;;
10934;SDS011;5520;45.752;4.874;2022-08-21T06:42:48;2.27;;;1.37;;
10934;SDS011;5520;45.752;4.874;2022-08-21T06:45:18;4.70;;;1.23;;
10934;SDS011;5520;45.752;4.874;2022-08-21T06:47:46;3.67;;;1.40;;
10934;SDS011;5520;45.752;4.874;2022-08-21T06:50:14;3.00;;;1.30;;
10934;SDS011;5520;45.752;4.874;2022-08-21T06:52:42;5.00;;;1.17;;
10934;SDS011;5520;45.752;4.874;2022-08-21T06:55:10;3.73;;;1.20;;
10934;SDS011;5520;45.752;4.874;2022-08-21T06:57:46;2.10;;;1.10;;
10934;SDS011;5520;45.752;4.874;2022-08-21T07:00:19;4.50;;;1.23;;
10934;SDS011;5520;45.752;4.874;2022-08-21T07:02:48;3.70;;;1.33;;
10934;SDS011;5520;45.752;4.874;2022-08-21T07:05:16;4.73;;;1.60;;
10934;SDS011;5520;45.752;4.874;2022-08-21T07:07:44;1.90;;;1.30;;
10934;SDS011;5520;45.752;4.874;2022-08-21T07:10:12;1.47;;;0.80;;
10934;SDS011;5520;45.752;4.874;2022-08-21T07:12:48;5.00;;;1.50;;
10934;SDS011;5520;45.752;4.874;2022-08-21T07:15:28;3.03;;;1.17;;
10934;SDS011;5520;45.752;4.874;2022-08-21T07:17:56;3.00;;;1.47;;
10934;SDS011;5520;45.752;4.874;2022-08-21T07:20:25;1.90;;;1.00;;
10934;SDS011;5520;45.752;4.874;2022-08-21T07:22:53;1.97;;;1.70;;
10934;SDS011;5520;45.752;4.874;2022-08-21T07:25:22;1.80;;;0.97;;
10934;SDS011;5520;45.752;4.874;2022-08-21T07:27:50;4.70;;;1.50;;
10934;SDS011;5520;45.752;4.874;2022-08-21T07:30:18;2.27;;;1.40;;
10934;SDS011;5520;45.752;4.874;2022-08-21T07:32:48;6.37;;;1.50;;
10934;SDS011;5520;45.752;4.874;2022-08-21T07:35:17;1.40;;;1.10;;
10934;SDS011;5520;45.752;4.874;2022-08-21T07:37:45;3.63;;;1.20;;
10934;SDS011;5520;45.752;4.874;2022-08-21T07:40:13;1.80;;;1.10;;
10934;SDS011;5520;45.752;4.874;2022-08-21T07:42:42;6.33;;;1.73;;
10934;SDS011;5520;45.752;4.874;2022-08-21T07:45:11;2.80;;;1.30;;
10934;SDS011;5520;45.752;4.874;2022-08-21T07:47:39;3.53;;;1.13;;
10934;SDS011;5520;45.752;4.874;2022-08-21T07:50:10;3.07;;;1.00;;
10934;SDS011;5520;45.752;4.874;2022-08-21T07:52:38;2.13;;;1.23;;
10934;SDS011;5520;45.752;4.874;2022-08-21T07:55:07;3.70;;;1.77;;
10934;SDS011;5520;45.752;4.874;2022-08-21T07:57:35;2.53;;;1.10;;
10934;SDS011;5520;45.752;4.874;2022-08-21T08:00:03;5.23;;;1.23;;
10934;SDS011;5520;45.752;4.874;2022-08-21T08:02:32;2.80;;;1.20;;
10934;SDS011;5520;45.752;4.874;2022-08-21T08:05:00;2.47;;;1.17;;
10934;SDS011;5520;45.752;4.874;2022-08-21T08:07:30;2.27;;;1.10;;
10934;SDS011;5520;45.752;4.874;2022-08-21T08:09:58;2.87;;;2.17;;
10934;SDS011;5520;45.752;4.874;2022-08-21T08:12:26;3.70;;;1.27;;
10934;SDS011;5520;45.752;4.874;2022-08-21T08:14:56;2.53;;;1.00;;
10934;SDS011;5520;45.752;4.874;2022-08-21T08:17:24;1.30;;;1.10;;
10934;SDS011;5520;45.752;4.874;2022-08-21T08:19:53;2.90;;;1.10;;
10934;SDS011;5520;45.752;4.874;2022-08-21T08:22:22;3.43;;;1.50;;
10934;SDS011;5520;45.752;4.874;2022-08-21T08:24:52;2.63;;;1.17;;
10934;SDS011;5520;45.752;4.874;2022-08-21T08:27:20;2.37;;;1.20;;
10934;SDS011;5520;45.752;4.874;2022-08-21T08:29:48;4.23;;;1.00;;
10934;SDS011;5520;45.752;4.874;2022-08-21T08:32:17;1.53;;;1.17;;
10934;SDS011;5520;45.752;4.874;2022-08-21T08:34:45;4.30;;;1.50;;
10934;SDS011;5520;45.752;4.874;2022-08-21T08:37:13;2.27;;;1.47;;
10934;SDS011;5520;45.752;4.874;2022-08-21T08:39:41;2.07;;;1.00;;
10934;SDS011;5520;45.752;4.874;2022-08-21T08:42:11;5.43;;;1.37;;
10934;SDS011;5520;45.752;4.874;2022-08-21T08:45:00;2.33;;;1.27;;
10934;SDS011;5520;45.752;4.874;2022-08-21T08:47:29;2.83;;;1.17;;
10934;SDS011;5520;45.752;4.874;2022-08-21T08:50:00;1.73;;;0.80;;
10934;SDS011;5520;45.752;4.874;2022-08-21T08:52:30;6.57;;;1.30;;
10934;SDS011;5520;45.752;4.874;2022-08-21T08:55:00;1.50;;;1.13;;
10934;SDS011;5520;45.752;4.874;2022-08-21T08:57:31;1.83;;;1.10;;
10934;SDS011;5520;45.752;4.874;2022-08-21T09:00:00;4.43;;;1.30;;
10934;SDS011;5520;45.752;4.874;2022-08-21T09:02:28;2.53;;;1.10;;
10934;SDS011;5520;45.752;4.874;2022-08-21T09:04:57;3.37;;;1.30;;
10934;SDS011;5520;45.752;4.874;2022-08-21T09:07:30;2.87;;;1.27;;
10934;SDS011;5520;45.752;4.874;2022-08-21T09:10:04;3.33;;;1.20;;
10934;SDS011;5520;45.752;4.874;2022-08-21T09:12:38;3.03;;;1.30;;
10934;SDS011;5520;45.752;4.874;2022-08-21T09:15:10;2.27;;;1.40;;
10934;SDS011;5520;45.752;4.874;2022-08-21T09:17:43;4.50;;;2.10;;
10934;SDS011;5520;45.752;4.874;2022-08-21T09:20:18;3.60;;;1.47;;
10934;SDS011;5520;45.752;4.874;2022-08-21T09:22:50;3.23;;;1.20;;
10934;SDS011;5520;45.752;4.874;2022-08-21T09:25:24;3.23;;;1.20;;
10934;SDS011;5520;45.752;4.874;2022-08-21T09:27:54;1.40;;;0.97;;
10934;SDS011;5520;45.752;4.874;2022-08-21T09:30:24;2.80;;;1.50;;
10934;SDS011;5520;45.752;4.874;2022-08-21T09:32:53;4.53;;;1.00;;
10934;SDS011;5520;45.752;4.874;2022-08-21T09:35:21;6.33;;;1.27;;
10934;SDS011;5520;45.752;4.874;2022-08-21T09:37:51;2.53;;;1.40;;
10934;SDS011;5520;45.752;4.874;2022-08-21T09:40:31;4.53;;;1.30;;
10934;SDS011;5520;45.752;4.874;2022-08-21T09:43:02;5.17;;;1.57;;
10934;SDS011;5520;45.752;4.874;2022-08-21T09:45:31;2.30;;;1.20;;
10934;SDS011;5520;45.752;4.874;2022-08-21T09:48:13;1.40;;;0.90;;
10934;SDS011;5520;45.752;4.874;2022-08-21T09:50:42;4.50;;;1.47;;
10934;SDS011;5520;45.752;4.874;2022-08-21T09:53:15;3.57;;;1.20;;
10934;SDS011;5520;45.752;4.874;2022-08-21T09:55:47;1.77;;;1.10;;
10934;SDS011;5520;45.752;4.874;2022-08-21T09:58:35;1.33;;;1.00;;
10934;SDS011;5520;45.752;4.874;2022-08-21T10:01:05;2.57;;;1.00;;
10934;SDS011;5520;45.752;4.874;2022-08-21T10:03:33;2.13;;;1.13;;
10934;SDS011;5520;45.752;4.874;2022-08-21T10:06:02;5.03;;;1.40;;
10934;SDS011;5520;45.752;4.874;2022-08-21T10:08:36;3.50;;;1.50;;
10934;SDS011;5520;45.752;4.874;2022-08-21T10:11:05;6.37;;;1.30;;
10934;SDS011;5520;45.752;4.874;2022-08-21T10:13:39;1.80;;;0.80;;
10934;SDS011;5520;45.752;4.874;2022-08-21T10:16:12;3.13;;;1.10;;
10934;SDS011;5520;45.752;4.874;2022-08-21T10:18:42;2.33;;;1.10;;
10934;SDS011;5520;45.752;4.874;2022-08-21T10:21:16;3.10;;;1.40;;
10934;SDS011;5520;45.752;4.874;2022-08-21T10:23:49;2.57;;;1.13;;
10934;SDS011;5520;45.752;4.874;2022-08-21T10:26:24;4.83;;;1.10;;
10934;SDS011;5520;45.752;4.874;2022-08-21T10:28:57;2.80;;;1.27;;
10934;SDS011;5520;45.752;4.874;2022-08-21T10:31:30;1.30;;;1.20;;
10934;SDS011;5520;45.752;4.874;2022-08-21T10:34:05;2.23;;;1.17;;
10934;SDS011;5520;45.752;4.874;2022-08-21T10:36:35;3.60;;;1.10;;
10934;SDS011;5520;45.752;4.874;2022-08-21T10:39:08;2.63;;;1.23;;
10934;SDS011;5520;45.752;4.874;2022-08-21T10:42:14;2.90;;;1.77;;
10934;SDS011;5520;45.752;4.874;2022-08-21T10:44:49;2.83;;;0.90;;
10934;SDS011;5520;45.752;4.874;2022-08-21T10:47:22;5.23;;;1.07;;
10934;SDS011;5520;45.752;4.874;2022-08-21T10:49:53;3.13;;;1.30;;
10934;SDS011;5520;45.752;4.874;2022-08-21T10:52:33;3.97;;;1.67;;
10934;SDS011;5520;45.752;4.874;2022-08-21T10:55:10;2.97;;;1.27;;
10934;SDS011;5520;45.752;4.874;2022-08-21T10:57:40;3.03;;;1.63;;
10934;SDS011;5520;45.752;4.874;2022-08-21T11:00:13;2.78;;;1.30;;
10934;SDS011;5520;45.752;4.874;2022-08-21T11:02:42;2.73;;;1.17;;
10934;SDS011;5520;45.752;4.874;2022-08-21T11:05:13;3.70;;;1.53;;
10934;SDS011;5520;45.752;4.874;2022-08-21T11:07:44;1.43;;;1.00;;
10934;SDS011;5520;45.752;4.874;2022-08-21T11:10:16;3.20;;;1.20;;
10934;SDS011;5520;45.752;4.874;2022-08-21T11:12:46;1.40;;;1.30;;
10934;SDS011;5520;45.752;4.874;2022-08-21T11:15:24;2.50;;;1.10;;
10934;SDS011;5520;45.752;4.874;2022-08-21T11:17:57;3.40;;;0.90;;
10934;SDS011;5520;45.752;4.874;2022-08-21T11:20:28;3.63;;;0.97;;
10934;SDS011;5520;45.752;4.874;2022-08-21T11:22:58;2.67;;;1.40;;
10934;SDS011;5520;45.752;4.874;2022-08-21T11:25:31;2.13;;;1.03;;
10934;SDS011;5520;45.752;4.874;2022-08-21T11:28:04;1.90;;;1.10;;
10934;SDS011;5520;45.752;4.874;2022-08-21T11:30:43;2.70;;;1.10;;
10934;SDS011;5520;45.752;4.874;2022-08-21T11:33:20;2.40;;;1.30;;
10934;SDS011;5520;45.752;4.874;2022-08-21T11:35:51;2.50;;;1.50;;
10934;SDS011;5520;45.752;4.874;2022-08-21T11:38:24;2.57;;;0.77;;
10934;SDS011;5520;45.752;4.874;2022-08-21T11:43:40;1.53;;;1.10;;
10934;SDS011;5520;45.752;4.874;2022-08-21T11:46:16;1.90;;;1.50;;
10934;SDS011;5520;45.752;4.874;2022-08-21T11:48:48;5.13;;;1.17;;
10934;SDS011;5520;45.752;4.874;2022-08-21T11:51:23;2.27;;;1.10;;
10934;SDS011;5520;45.752;4.874;2022-08-21T11:53:57;1.73;;;1.10;;
10934;SDS011;5520;45.752;4.874;2022-08-21T11:56:33;1.43;;;1.10;;
10934;SDS011;5520;45.752;4.874;2022-08-21T11:59:05;3.07;;;1.20;;
10934;SDS011;5520;45.752;4.874;2022-08-21T12:01:36;1.20;;;1.10;;
10934;SDS011;5520;45.752;4.874;2022-08-21T12:04:08;1.47;;;1.00;;
10934;SDS011;5520;45.752;4.874;2022-08-21T12:06:38;1.50;;;1.00;;
10934;SDS011;5520;45.752;4.874;2022-08-21T12:09:07;2.10;;;0.97;;
10934;SDS011;5520;45.752;4.874;2022-08-21T12:11:46;2.50;;;1.30;;
10934;SDS011;5520;45.752;4.874;2022-08-21T12:14:15;2.97;;;1.33;;
10934;SDS011;5520;45.752;4.874;2022-08-21T12:16:46;2.43;;;1.37;;
10934;SDS011;5520;45.752;4.874;2022-08-21T12:19:27;2.10;;;1.30;;
10934;SDS011;5520;45.752;4.874;2022-08-21T12:21:58;2.07;;;1.10;;
10934;SDS011;5520;45.752;4.874;2022-08-21T12:24:32;2.30;;;1.20;;
10934;SDS011;5520;45.752;4.874;2022-08-21T12:27:01;3.20;;;1.70;;
10934;SDS011;5520;45.752;4.874;2022-08-21T12:29:45;2.83;;;1.13;;
10934;SDS011;5520;45.752;4.874;2022-08-21T12:32:23;3.30;;;1.27;;
10934;SDS011;5520;45.752;4.874;2022-08-21T12:34:52;2.57;;;1.20;;
10934;SDS011;5520;45.752;4.874;2022-08-21T12:37:22;1.70;;;1.20;;
10934;SDS011;5520;45.752;4.874;2022-08-21T12:39:52;2.10;;;1.07;;
10934;SDS011;5520;45.752;4.874;2022-08-21T12:42:22;2.40;;;1.33;;
10934;SDS011;5520;45.752;4.874;2022-08-21T12:44:51;5.17;;;1.40;;
10934;SDS011;5520;45.752;4.874;2022-08-21T12:47:24;3.80;;;1.33;;
10934;SDS011;5520;45.752;4.874;2022-08-21T12:49:54;2.63;;;1.20;;
10934;SDS011;5520;45.752;4.874;2022-08-21T12:52:27;4.87;;;1.63;;
10934;SDS011;5520;45.752;4.874;2022-08-21T12:55:02;2.50;;;1.27;;
10934;SDS011;5520;45.752;4.874;2022-08-21T12:57:31;3.33;;;1.53;;
10934;SDS011;5520;45.752;4.874;2022-08-21T12:59:59;1.40;;;1.20;;
10934;SDS011;5520;45.752;4.874;2022-08-21T13:02:30;3.30;;;1.40;;
10934;SDS011;5520;45.752;4.874;2022-08-21T13:05:01;2.00;;;1.50;;
10934;SDS011;5520;45.752;4.874;2022-08-21T13:07:29;1.63;;;1.30;;
10934;SDS011;5520;45.752;4.874;2022-08-21T13:10:00;3.60;;;1.57;;
10934;SDS011;5520;45.752;4.874;2022-08-21T13:12:29;3.93;;;1.70;;
10934;SDS011;5520;45.752;4.874;2022-08-21T13:14:59;3.97;;;1.77;;
10934;SDS011;5520;45.752;4.874;2022-08-21T13:17:30;6.00;;;1.67;;
10934;SDS011;5520;45.752;4.874;2022-08-21T13:20:00;2.30;;;1.40;;
10934;SDS011;5520;45.752;4.874;2022-08-21T13:22:28;4.80;;;2.13;;
10934;SDS011;5520;45.752;4.874;2022-08-21T13:25:00;3.60;;;1.43;;
10934;SDS011;5520;45.752;4.874;2022-08-21T13:27:33;2.83;;;2.33;;
10934;SDS011;5520;45.752;4.874;2022-08-21T13:30:03;3.47;;;1.80;;
10934;SDS011;5520;45.752;4.874;2022-08-21T13:32:34;4.50;;;2.30;;
10934;SDS011;5520;45.752;4.874;2022-08-21T13:35:07;3.57;;;1.73;;
10934;SDS011;5520;45.752;4.874;2022-08-21T13:37:37;2.63;;;1.80;;
10934;SDS011;5520;45.752;4.874;2022-08-21T13:40:07;3.97;;;1.83;;
10934;SDS011;5520;45.752;4.874;2022-08-21T13:42:35;2.63;;;1.87;;
10934;SDS011;5520;45.752;4.874;2022-08-21T13:45:10;3.60;;;1.60;;
10934;SDS011;5520;45.752;4.874;2022-08-21T13:47:40;5.80;;;2.10;;
10934;SDS011;5520;45.752;4.874;2022-08-21T13:50:08;3.73;;;1.60;;
10934;SDS011;5520;45.752;4.874;2022-08-21T13:52:46;2.43;;;1.73;;
10934;SDS011;5520;45.752;4.874;2022-08-21T13:55:16;3.00;;;1.67;;
10934;SDS011;5520;45.752;4.874;2022-08-21T13:57:44;3.83;;;2.00;;
10934;SDS011;5520;45.752;4.874;2022-08-21T14:00:13;6.10;;;2.17;;
10934;SDS011;5520;45.752;4.874;2022-08-21T14:02:43;2.30;;;1.77;;
10934;SDS011;5520;45.752;4.874;2022-08-21T14:05:14;3.10;;;1.80;;
10934;SDS011;5520;45.752;4.874;2022-08-21T14:07:43;3.53;;;1.90;;
10934;SDS011;5520;45.752;4.874;2022-08-21T14:10:13;2.63;;;1.97;;
10934;SDS011;5520;45.752;4.874;2022-08-21T14:12:42;4.17;;;2.17;;
10934;SDS011;5520;45.752;4.874;2022-08-21T14:15:12;4.77;;;2.00;;
10934;SDS011;5520;45.752;4.874;2022-08-21T14:17:41;3.37;;;1.70;;
10934;SDS011;5520;45.752;4.874;2022-08-21T14:20:12;6.03;;;3.23;;
10934;SDS011;5520;45.752;4.874;2022-08-21T14:22:44;4.57;;;2.00;;
10934;SDS011;5520;45.752;4.874;2022-08-21T14:25:13;4.10;;;2.83;;
10934;SDS011;5520;45.752;4.874;2022-08-21T14:27:43;5.03;;;2.13;;
10934;SDS011;5520;45.752;4.874;2022-08-21T14:30:12;2.67;;;1.90;;
10934;SDS011;5520;45.752;4.874;2022-08-21T14:32:40;5.03;;;2.33;;
10934;SDS011;5520;45.752;4.874;2022-08-21T14:35:17;2.73;;;1.50;;
10934;SDS011;5520;45.752;4.874;2022-08-21T14:37:50;2.67;;;1.70;;
10934;SDS011;5520;45.752;4.874;2022-08-21T14:40:18;5.00;;;1.80;;
10934;SDS011;5520;45.752;4.874;2022-08-21T14:42:47;3.33;;;2.20;;
10934;SDS011;5520;45.752;4.874;2022-08-21T14:45:17;3.00;;;1.73;;
10934;SDS011;5520;45.752;4.874;2022-08-21T14:47:52;3.63;;;2.33;;
10934;SDS011;5520;45.752;4.874;2022-08-21T14:50:22;5.37;;;2.30;;
10934;SDS011;5520;45.752;4.874;2022-08-21T14:52:53;4.00;;;2.50;;
10934;SDS011;5520;45.752;4.874;2022-08-21T14:55:21;5.47;;;2.43;;
10934;SDS011;5520;45.752;4.874;2022-08-21T14:57:50;2.97;;;2.20;;
10934;SDS011;5520;45.752;4.874;2022-08-21T15:00:20;4.37;;;2.27;;
10934;SDS011;5520;45.752;4.874;2022-08-21T15:02:52;5.50;;;2.43;;
10934;SDS011;5520;45.752;4.874;2022-08-21T15:05:20;5.60;;;2.17;;
10934;SDS011;5520;45.752;4.874;2022-08-21T15:08:00;4.50;;;2.60;;
10934;SDS011;5520;45.752;4.874;2022-08-21T15:10:28;4.03;;;2.57;;
10934;SDS011;5520;45.752;4.874;2022-08-21T15:12:57;7.27;;;2.00;;
10934;SDS011;5520;45.752;4.874;2022-08-21T15:15:25;3.87;;;1.90;;
10934;SDS011;5520;45.752;4.874;2022-08-21T15:17:53;7.00;;;2.53;;
10934;SDS011;5520;45.752;4.874;2022-08-21T15:20:21;3.57;;;2.13;;
10934;SDS011;5520;45.752;4.874;2022-08-21T15:22:49;3.90;;;2.30;;